createdAt,value
2023-03-22T00:00:35.113Z,45.116000
2023-03-22T00:05:17.372Z,44.960000
2023-03-22T00:10:20.175Z,44.888000
2023-03-22T00:15:22.403Z,44.702857
2023-03-22T00:20:24.543Z,44.492000
2023-03-22T00:25:27.171Z,44.420000
2023-03-22T00:30:29.659Z,44.420000
2023-03-22T00:35:32.455Z,44.264000
2023-03-22T00:40:34.913Z,44.132000
2023-03-22T00:45:16.932Z,44.132000
2023-03-22T00:50:19.657Z,43.904000
2023-03-22T00:55:21.902Z,43.592000
2023-03-22T01:00:24.101Z,43.340000
2023-03-22T01:05:27.193Z,43.160000
2023-03-22T01:10:29.109Z,42.944000
2023-03-22T01:15:31.500Z,42.548000
2023-03-22T01:20:33.941Z,42.080000
2023-03-22T01:25:16.210Z,41.792000
2023-03-22T01:30:18.255Z,41.624000
2023-03-22T01:35:20.392Z,41.420000
2023-03-22T01:40:22.463Z,41.411429
2023-03-22T01:45:24.902Z,41.540000
2023-03-22T01:50:27.145Z,41.468000
2023-03-22T01:55:29.368Z,41.360000
2023-03-22T02:00:31.533Z,41.360000
2023-03-22T02:10:24.462Z,41.816923
2023-03-22T02:15:26.200Z,42.488000
2023-03-22T02:20:28.412Z,42.596000
2023-03-22T02:25:30.721Z,42.260000
2023-03-22T02:30:33.474Z,42.344000
2023-03-22T02:35:16.265Z,42.248000
2023-03-22T02:40:18.925Z,42.080000
2023-03-22T02:45:21.318Z,42.140000
2023-03-22T02:50:24.762Z,42.581429
2023-03-22T02:55:26.310Z,42.980000
2023-03-22T03:00:21.079Z,42.992000
2023-03-22T03:05:32.305Z,43.160000
2023-03-22T03:10:35.074Z,43.016000
2023-03-22T03:15:17.743Z,42.968000
2023-03-22T03:20:20.915Z,42.092000
2023-03-22T03:25:23.401Z,41.771429
2023-03-22T03:30:26.400Z,41.540000
2023-03-22T03:35:28.980Z,41.768000
2023-03-22T03:40:32.646Z,42.416000
2023-03-22T03:45:35.378Z,42.488000
2023-03-22T03:50:30.134Z,42.188000
2023-03-22T03:55:20.623Z,42.080000
2023-03-22T04:00:23.662Z,41.925714
2023-03-22T04:05:26.521Z,41.756000
2023-03-22T04:10:29.079Z,41.540000
2023-03-22T04:15:33.009Z,41.396000
2023-03-22T04:20:34.649Z,41.276000
2023-03-22T04:25:17.311Z,40.964000
2023-03-22T04:30:20.412Z,40.820000
2023-03-22T04:35:23.519Z,40.704286
2023-03-22T04:40:26.116Z,40.640000
2023-03-22T04:45:28.750Z,40.508000
2023-03-22T04:50:31.425Z,40.280000
2023-03-22T04:55:33.864Z,40.256000
2023-03-22T05:00:16.429Z,40.148000
2023-03-22T05:05:19.503Z,39.944000
2023-03-22T05:10:22.145Z,39.680000
2023-03-22T05:15:25.007Z,39.920000
2023-03-22T05:20:27.535Z,40.028000
2023-03-22T05:25:29.999Z,39.920000
2023-03-22T05:30:32.737Z,39.956000
2023-03-22T05:35:35.056Z,40.100000
2023-03-22T05:40:17.615Z,40.292000
2023-03-22T05:45:20.203Z,40.496000
2023-03-22T05:50:23.328Z,40.730000
2023-03-22T05:55:26.579Z,40.880000
2023-03-22T06:00:29.411Z,40.820000
2023-03-22T06:05:33.907Z,40.820000
2023-03-22T06:10:35.592Z,41.000000
2023-03-22T06:15:18.087Z,40.892000
2023-03-22T06:20:21.055Z,40.688000
2023-03-22T06:25:23.724Z,40.575714
2023-03-22T06:30:26.829Z,39.548000
2023-03-22T06:35:30.446Z,38.480000
2023-03-22T06:40:33.210Z,37.628000
2023-03-22T06:45:35.879Z,36.800000
2023-03-22T06:50:17.540Z,36.344000
2023-03-22T06:55:20.105Z,35.972000
2023-03-22T07:00:22.429Z,35.690000
2023-03-22T07:05:25.129Z,35.252000
2023-03-22T07:10:27.926Z,34.928000
2023-03-22T07:15:30.753Z,34.736000
2023-03-22T07:20:33.442Z,34.700000
2023-03-22T07:25:16.194Z,34.700000
2023-03-22T07:30:19.761Z,34.796000
2023-03-22T07:35:25.026Z,34.880000
2023-03-22T07:40:25.480Z,34.724000
2023-03-22T07:45:27.723Z,34.532000
2023-03-22T07:50:30.210Z,34.364000
2023-03-22T07:55:32.813Z,34.232000
2023-03-22T08:00:34.881Z,33.992000
2023-03-22T08:05:17.449Z,34.136000
2023-03-22T08:10:20.547Z,33.992000
2023-03-22T08:15:23.638Z,33.864286
2023-03-22T08:20:26.108Z,33.476000
2023-03-22T08:25:29.179Z,32.984000
2023-03-22T08:30:32.817Z,32.720000
2023-03-22T08:35:16.114Z,32.804000
2023-03-22T08:40:18.563Z,32.900000
2023-03-22T08:45:21.183Z,32.948000
2023-03-22T08:50:24.312Z,33.080000
2023-03-22T08:55:27.368Z,33.080000
2023-03-22T09:00:39.287Z,33.200000
2023-03-22T09:05:32.259Z,33.260000
2023-03-22T09:10:34.210Z,33.380000
2023-03-22T09:15:16.065Z,33.476000
2023-03-22T09:20:18.299Z,33.596000
2023-03-22T09:25:20.235Z,33.704000
2023-03-22T09:30:22.221Z,33.555714
2023-03-22T09:35:24.262Z,33.920000
2023-03-22T09:40:26.354Z,34.172000
2023-03-22T09:45:28.341Z,34.124000
2023-03-22T09:50:30.361Z,34.364000
2023-03-22T09:55:32.665Z,34.436000
2023-03-22T10:00:35.354Z,34.172000
2023-03-22T10:05:16.985Z,33.620000
2023-03-22T10:10:18.957Z,33.512000
2023-03-22T10:15:21.008Z,33.524000
2023-03-22T10:20:22.674Z,33.478571
2023-03-22T10:25:24.658Z,33.800000
2023-03-22T10:30:26.820Z,33.908000
2023-03-22T10:35:28.748Z,34.160000
2023-03-22T10:40:30.845Z,34.160000
2023-03-22T10:45:32.664Z,34.412000
2023-03-22T10:50:34.591Z,34.700000
2023-03-22T10:55:16.751Z,34.700000
2023-03-22T11:00:19.002Z,34.916000
2023-03-22T11:05:20.980Z,34.784000
2023-03-22T11:10:22.825Z,34.262857
2023-03-22T11:15:25.030Z,33.836000
2023-03-22T11:20:29.758Z,33.716000
2023-03-22T11:25:29.070Z,33.620000
2023-03-22T11:30:31.333Z,33.572000
2023-03-22T11:35:33.478Z,33.800000
2023-03-22T11:40:36.249Z,33.620000
2023-03-22T11:45:18.963Z,33.728000
2023-03-22T11:50:20.744Z,33.620000
2023-03-22T11:55:24.378Z,33.735714
2023-03-22T12:00:25.774Z,33.656000
2023-03-22T12:05:28.245Z,34.496000
2023-03-22T12:10:30.683Z,34.628000
2023-03-22T12:15:33.620Z,34.220000
2023-03-22T12:20:35.748Z,34.640000
2023-03-22T12:25:17.752Z,35.192000
2023-03-22T12:30:19.791Z,35.108000
2023-03-22T12:35:22.160Z,35.252000
2023-03-22T12:40:23.898Z,35.420000
2023-03-22T12:45:25.784Z,35.420000
2023-03-22T12:50:27.861Z,35.504000
2023-03-22T12:55:29.897Z,35.480000
2023-03-22T13:00:32.055Z,35.876000
2023-03-22T13:05:34.079Z,35.648000
2023-03-22T13:10:16.431Z,35.780000
2023-03-22T13:15:19.553Z,35.876000
2023-03-22T13:20:20.519Z,35.876000
2023-03-22T13:25:23.071Z,35.960000
2023-03-22T13:30:25.333Z,36.020000
2023-03-22T13:35:28.127Z,36.044000
2023-03-22T13:40:29.785Z,35.840000
2023-03-22T13:45:31.996Z,35.960000
2023-03-22T13:50:33.932Z,35.876000
2023-03-22T13:55:36.018Z,35.888000
2023-03-22T14:00:20.291Z,35.828000
2023-03-22T14:05:20.157Z,35.936000
2023-03-22T14:10:22.416Z,35.960000
2023-03-22T14:15:24.443Z,36.116000
2023-03-22T14:20:26.716Z,36.248000
2023-03-22T14:55:21.225Z,36.680000
2023-03-22T15:00:23.349Z,36.680000
2023-03-22T15:05:25.726Z,36.560000
2023-03-22T15:10:27.761Z,36.716000
2023-03-22T15:15:29.780Z,36.968000
2023-03-22T15:20:32.188Z,37.388000
2023-03-22T15:25:34.966Z,37.520000
2023-03-22T15:30:16.826Z,37.520000
2023-03-22T15:35:18.855Z,37.928000
2023-03-22T15:40:21.063Z,38.192000
2023-03-22T15:45:23.326Z,38.312857
2023-03-22T15:50:25.242Z,38.888000
2023-03-22T15:55:27.475Z,38.780000
2023-03-22T16:00:29.765Z,38.588000
2023-03-22T16:05:32.329Z,38.192000
2023-03-22T16:10:34.336Z,38.228000
2023-03-22T16:15:16.345Z,38.480000
2023-03-22T16:20:18.522Z,38.552000
2023-03-22T16:25:20.267Z,38.180000
2023-03-22T16:30:22.159Z,37.682857
2023-03-22T16:35:24.566Z,37.868000
2023-03-22T16:40:26.612Z,37.664000
2023-03-22T16:45:28.423Z,37.652000
2023-03-22T16:50:30.651Z,37.580000
2023-03-22T16:55:32.549Z,37.436000
2023-03-22T17:00:34.669Z,37.868000
2023-03-22T17:05:16.525Z,37.652000
2023-03-22T17:10:18.601Z,37.400000
2023-03-22T17:15:21.514Z,37.472000
2023-03-22T17:20:22.693Z,37.772857
2023-03-22T17:25:24.785Z,37.712000
2023-03-22T17:30:26.946Z,37.760000
2023-03-22T17:35:28.793Z,37.616000
2023-03-22T17:40:37.225Z,37.436000
2023-03-22T17:46:13.282Z,37.676000
2023-03-22T17:47:23.902Z,37.676000
2023-03-22T17:50:34.605Z,38.168000
2023-03-22T17:55:22.294Z,38.492000
2023-03-22T18:00:18.553Z,38.792000
2023-03-22T18:05:28.092Z,36.980000
2023-03-22T18:10:22.510Z,35.407143
2023-03-22T18:15:24.728Z,34.460000
2023-03-22T18:20:46.371Z,33.692000
2023-03-22T18:25:35.445Z,33.740000
2023-03-22T18:30:31.683Z,33.764000
2023-03-22T18:35:33.932Z,33.956000
2023-03-22T18:41:09.977Z,34.484000
2023-03-22T18:45:18.578Z,34.916000
2023-03-22T18:50:20.000Z,34.964000
2023-03-22T18:55:29.455Z,34.455714
2023-03-22T19:00:24.179Z,34.340000
2023-03-22T19:05:26.374Z,34.196000
2023-03-22T19:10:28.643Z,33.932000
2023-03-22T19:15:45.039Z,33.680000
2023-03-22T19:20:39.980Z,33.356000
2023-03-22T19:25:35.544Z,32.984000
2023-03-22T19:30:17.756Z,32.708000
2023-03-22T19:35:19.861Z,32.540000
2023-03-22T19:41:15.382Z,32.540000
2023-03-22T19:41:41.406Z,32.540000
2023-03-22T19:45:25.127Z,32.630000
2023-03-22T19:50:26.427Z,32.660000
2023-03-22T19:55:28.595Z,32.540000
2023-03-22T20:00:45.355Z,32.564000
2023-03-22T20:05:34.989Z,32.720000
2023-03-22T20:10:34.345Z,32.744000
2023-03-22T20:15:16.077Z,32.900000
2023-03-22T20:20:18.152Z,32.900000
2023-03-22T20:25:20.092Z,33.020000
2023-03-22T20:30:22.035Z,32.900000
2023-03-22T20:35:23.936Z,32.938571
2023-03-22T20:40:26.015Z,32.816000
2023-03-22T20:45:28.043Z,32.864000
2023-03-22T20:50:30.145Z,32.984000
2023-03-22T20:55:32.599Z,33.080000
2023-03-22T21:00:35.108Z,33.164000
2023-03-22T21:05:17.106Z,33.104000
2023-03-22T21:10:19.072Z,33.176000
2023-03-22T21:15:21.067Z,33.080000
2023-03-22T21:20:32.334Z,33.247143
2023-03-22T21:25:27.330Z,33.332000
2023-03-22T21:30:28.231Z,33.416000
2023-03-22T21:35:30.260Z,33.440000
2023-03-22T21:40:32.273Z,33.440000
2023-03-22T21:45:36.176Z,33.440000
2023-03-22T21:50:16.671Z,33.440000
2023-03-22T21:55:18.646Z,33.692000
2023-03-22T22:00:20.430Z,34.424000
2023-03-22T22:05:22.332Z,34.970000
2023-03-22T22:10:24.295Z,35.108000
2023-03-22T22:15:26.292Z,35.384000
2023-03-22T22:20:28.218Z,35.420000
2023-03-22T22:25:30.622Z,35.432000
2023-03-22T22:30:32.435Z,35.600000
2023-03-22T22:35:34.593Z,35.504000
2023-03-22T22:40:16.273Z,35.528000
2023-03-22T22:45:18.446Z,35.420000
2023-03-22T22:50:20.419Z,35.192000
2023-03-22T22:55:22.507Z,34.957143
2023-03-22T23:00:24.519Z,34.676000
2023-03-22T23:05:26.593Z,34.520000
2023-03-22T23:10:28.397Z,34.520000
2023-03-22T23:15:30.476Z,34.700000
2023-03-22T23:20:33.086Z,34.748000
2023-03-22T23:25:16.128Z,34.820000
2023-03-22T23:30:17.239Z,34.904000
2023-03-22T23:35:19.418Z,35.060000
2023-03-22T23:40:21.485Z,35.060000
2023-03-22T23:45:23.271Z,35.060000
2023-03-22T23:50:25.998Z,35.132000
2023-03-22T23:55:28.046Z,35.168000
